Time;durP1;ratioP1;P1;durP2;ratioP2;P2;SDS_P1;SDS_P2;PMS_P1;PMS_P2;Temp;Humidity;BMP_temperature;BMP_pressure;BME280_temperature;BME280_humidity;BME280_pressure;Samples;Min_cycle;Max_cycle;Signal;HPM_P1;HPM_P2
2022/03/02 00:00:05;;;;;;;;;;;;;;;17.49;51.83;100318.47;2054657;28;19918;-61
2022/03/02 00:01:05;;;;;;;;;;;;;;;17.49;51.57;100298.50;2049268;28;20190;-62
2022/03/02 00:02:05;;;;;;;;;;;;;;;17.47;51.71;100312.28;2053764;28;19922;-61
2022/03/02 00:03:06;;;;;;;;;;;;;;;17.47;51.68;100301.38;2053353;28;19928;-61
2022/03/02 00:04:06;;;;;;;;;;;;;;;17.46;51.65;100307.81;2051406;28;20391;-62
2022/03/02 00:05:07;;;;;;;;;;;;;;;17.46;51.85;100291.44;2054372;28;20313;-60
2022/03/02 00:06:09;;;;;;;;;;;;;;;17.46;51.90;100296.91;2053330;28;20394;-60
2022/03/02 00:07:09;;;;;;;;;;;;;;;17.44;51.78;100296.19;2052632;28;19921;-61
2022/03/02 00:08:10;;;;;;;;;;;;;;;17.44;51.92;100293.47;2052057;28;20080;-61
2022/03/02 00:09:10;;;;;;;;;;;;;;;17.45;51.87;100291.59;2053450;28;19925;-61
2022/03/02 00:10:10;;;;;;;;;;;;;;;17.45;51.86;100294.34;2045239;28;19921;-61
2022/03/02 00:11:11;;;;;;;;;;;;;;;17.43;51.87;100299.91;2044246;28;19979;-61
2022/03/02 00:12:12;;;;;;;;;;;;;;;17.43;51.94;100296.31;2050197;28;19925;-61
2022/03/02 00:13:12;;;;;;;;;;;;;;;17.43;51.91;100302.63;2052287;28;20316;-61
2022/03/02 00:14:12;;;;;;;;;;;;;;;17.44;51.81;100293.47;2051900;28;19969;-61
2022/03/02 00:15:13;;;;;;;;;;;;;;;17.46;51.77;100291.44;2054189;28;20546;-60
2022/03/02 00:16:14;;;;;;;;;;;;;;;17.47;51.52;100287.75;2051638;28;20052;-60
2022/03/02 00:17:14;;;;;;;;;;;;;;;17.49;51.70;100288.47;2054010;28;20283;-62
2022/03/02 00:18:14;;;;;;;;;;;;;;;17.50;51.86;100287.47;2051681;28;19914;-59
2022/03/02 00:19:15;;;;;;;;;;;;;;;17.50;51.51;100286.63;2054198;28;19928;-61
2022/03/02 00:20:15;;;;;;;;;;;;;;;17.51;51.59;100286.47;2054004;28;19921;-61
2022/03/02 00:21:15;;;;;;;;;;;;;;;17.51;51.79;100281.00;2051979;28;19949;-61
2022/03/02 00:22:16;;;;;;;;;;;;;;;17.51;51.50;100283.72;2053490;28;19918;-61
2022/03/02 00:23:16;;;;;;;;;;;;;;;17.54;51.52;100286.22;2052508;28;19931;-61
2022/03/02 00:24:16;;;;;;;;;;;;;;;17.52;51.67;100285.47;2051934;28;19985;-60
2022/03/02 00:25:17;;;;;;;;;;;;;;;17.53;51.80;100278.16;2053127;28;20004;-62
2022/03/02 00:26:17;;;;;;;;;;;;;;;17.51;51.76;100281.00;2050909;28;19972;-61
2022/03/02 00:27:24;;;;;;;;;;;;;;;17.50;51.64;100273.84;2049692;28;19922;-60
2022/03/02 00:28:24;;;;;;;;;;;;;;;17.50;51.65;100284.75;2053024;28;19961;-61
2022/03/02 00:29:25;;;;;;;;;;;;;;;17.50;51.61;100276.56;2053961;28;19929;-61
2022/03/02 00:30:28;;;;;;;;;;;;;;;17.50;51.63;100273.00;2058324;28;20427;-62
2022/03/02 00:31:28;;;;;;;;;;;;;;;17.48;51.85;100278.56;2051167;28;20714;-62
2022/03/02 00:32:29;;;;;;;;;;;;;;;17.47;51.64;100279.56;2052963;28;20403;-61
2022/03/02 00:33:29;;;;;;;;;;;;;;;17.47;51.84;100276.00;2052227;28;19922;-60
2022/03/02 00:34:29;;;;;;;;;;;;;;;17.47;51.72;100276.84;2055634;28;19922;-61
2022/03/02 00:35:30;;;;;;;;;;;;;;;17.46;51.98;100280.56;2055514;28;19922;-62
2022/03/02 00:36:30;;;;;;;;;;;;;;;17.46;51.80;100282.41;2052685;28;19929;-61
2022/03/02 00:37:30;;;;;;;;;;;;;;;17.46;51.79;100280.56;2052877;28;20118;-60
2022/03/02 00:38:31;;;;;;;;;;;;;;;17.45;51.77;100284.28;2056306;28;20505;-60
2022/03/02 00:39:31;;;;;;;;;;;;;;;17.45;51.81;100273.38;2050347;28;19969;-59
2022/03/02 00:40:31;;;;;;;;;;;;;;;17.44;52.00;100277.13;2052276;28;19921;-60
2022/03/02 00:41:32;;;;;;;;;;;;;;;17.43;51.95;100272.66;2053745;28;19933;-61
2022/03/02 00:42:32;;;;;;;;;;;;;;;17.43;51.82;100269.06;2052933;28;19932;-61
2022/03/02 00:43:33;;;;;;;;;;;;;;;17.43;51.90;100264.47;2054424;28;20378;-61
2022/03/02 00:44:33;;;;;;;;;;;;;;;17.45;51.78;100258.91;2050642;28;20157;-61
2022/03/02 00:45:34;;;;;;;;;;;;;;;17.46;51.61;100258.75;2054527;28;19982;-61
2022/03/02 00:46:34;;;;;;;;;;;;;;;17.46;51.63;100258.75;2053145;28;19917;-61
2022/03/02 00:47:35;;;;;;;;;;;;;;;17.46;51.60;100258.75;2053959;28;19945;-60
2022/03/02 00:48:35;;;;;;;;;;;;;;;17.47;51.63;100257.78;2051691;28;19917;-60
2022/03/02 00:49:36;;;;;;;;;;;;;;;17.46;51.56;100253.28;2052470;28;20333;-60
2022/03/02 00:50:37;;;;;;;;;;;;;;;17.46;51.67;100253.28;2055439;28;19922;-61
2022/03/02 00:51:37;;;;;;;;;;;;;;;17.47;51.67;100260.50;2048794;28;19953;-61
2022/03/02 00:52:37;;;;;;;;;;;;;;;17.45;51.79;100254.31;2052737;28;19942;-60
2022/03/02 00:53:38;;;;;;;;;;;;;;;17.44;51.53;100255.31;2050661;28;19940;-61
2022/03/02 00:54:38;;;;;;;;;;;;;;;17.44;51.72;100255.31;2052812;28;19932;-62
2022/03/02 00:55:39;;;;;;;;;;;;;;;17.42;51.84;100251.88;2045642;28;20453;-60
2022/03/02 00:56:39;;;;;;;;;;;;;;;17.43;51.88;100252.72;2036647;28;20001;-60
2022/03/02 00:57:39;;;;;;;;;;;;;;;17.42;51.85;100246.41;2040232;28;20578;-61
2022/03/02 00:58:40;;;;;;;;;;;;;;;17.41;51.88;100250.13;2051773;28;19926;-62
2022/03/02 00:59:40;;;;;;;;;;;;;;;17.41;51.85;100244.66;2059953;28;19968;-61
2022/03/02 01:00:40;;;;;;;;;;;;;;;17.41;52.01;100243.81;2060319;28;20734;-61
2022/03/02 01:01:41;;;;;;;;;;;;;;;17.39;52.04;100246.66;2059149;28;19933;-62
2022/03/02 01:02:42;;;;;;;;;;;;;;;17.39;51.96;100243.94;2059420;28;19978;-61
2022/03/02 01:03:42;;;;;;;;;;;;;;;17.38;51.79;100242.22;2060559;28;19921;-61
2022/03/02 01:04:42;;;;;;;;;;;;;;;17.38;52.03;100247.66;2064724;28;19928;-61
2022/03/02 01:05:43;;;;;;;;;;;;;;;17.38;51.94;100247.66;2061646;28;19917;-60
2022/03/02 01:06:43;;;;;;;;;;;;;;;17.37;52.06;100254.13;2059064;28;20010;-60
2022/03/02 01:07:44;;;;;;;;;;;;;;;17.36;51.92;100242.34;2061287;28;19944;-60
2022/03/02 01:08:44;;;;;;;;;;;;;;;17.37;52.02;100243.22;2059687;28;20594;-60
2022/03/02 01:09:45;;;;;;;;;;;;;;;17.37;52.18;100237.78;2059643;28;19933;-61
2022/03/02 01:10:45;;;;;;;;;;;;;;;17.37;51.95;100237.78;2061988;28;19917;-61
2022/03/02 01:11:46;;;;;;;;;;;;;;;17.35;51.85;100237.91;2055613;28;19922;-63
2022/03/02 01:12:46;;;;;;;;;;;;;;;17.36;51.97;100241.50;2058557;28;19921;-63
2022/03/02 01:13:47;;;;;;;;;;;;;;;17.34;52.06;100240.75;2046918;28;20336;-61
2022/03/02 01:14:47;;;;;;;;;;;;;;;17.34;51.93;100238.91;2049628;28;19963;-61
2022/03/02 01:15:47;;;;;;;;;;;;;;;17.35;52.04;100228.88;2051558;28;19939;-61
2022/03/02 01:16:48;;;;;;;;;;;;;;;17.34;52.22;100227.13;2045979;28;19918;-61
2022/03/02 01:17:48;;;;;;;;;;;;;;;17.34;52.03;100233.47;2052035;28;20008;-61
2022/03/02 01:18:49;;;;;;;;;;;;;;;17.36;52.20;100230.59;2056972;28;19922;-60
2022/03/02 01:19:49;;;;;;;;;;;;;;;17.38;52.00;100225.88;2058058;28;19913;-61
2022/03/02 01:20:50;;;;;;;;;;;;;;;17.39;52.13;100230.31;2061631;28;20289;-60
2022/03/02 01:21:50;;;;;;;;;;;;;;;17.40;51.84;100232.06;2060622;28;19964;-62
2022/03/02 01:22:50;;;;;;;;;;;;;;;17.41;52.15;100228.31;2061546;28;20364;-60
2022/03/02 01:23:53;;;;;;;;;;;;;;;17.43;52.11;100228.19;2061195;28;19965;-61
2022/03/02 01:24:55;;;;;;;;;;;;;;;17.41;51.83;100228.31;2061688;28;19925;-62
2022/03/02 01:25:55;;;;;;;;;;;;;;;17.43;51.97;100226.31;2060830;28;19947;-61
2022/03/02 01:26:55;;;;;;;;;;;;;;;17.44;51.78;100230.78;2061148;28;19922;-60
2022/03/02 01:27:56;;;;;;;;;;;;;;;17.43;51.93;100231.78;2061207;28;19975;-61
2022/03/02 01:28:56;;;;;;;;;;;;;;;17.44;51.82;100222.63;2059018;28;19922;-61
2022/03/02 01:29:57;;;;;;;;;;;;;;;17.44;52.01;100222.63;2059570;28;20395;-61
2022/03/02 01:30:57;;;;;;;;;;;;;;;17.44;52.10;100225.34;2058920;28;19918;-60
2022/03/02 01:31:57;;;;;;;;;;;;;;;17.46;52.05;100225.19;2060828;28;19922;-61
2022/03/02 01:32:58;;;;;;;;;;;;;;;17.45;51.95;100228.94;2060322;28;19929;-60
2022/03/02 01:33:58;;;;;;;;;;;;;;;17.44;51.80;100232.63;2061988;28;20332;-60
2022/03/02 01:34:59;;;;;;;;;;;;;;;17.43;51.90;100226.31;2058305;28;20392;-61
2022/03/02 01:35:59;;;;;;;;;;;;;;;17.42;52.23;100223.72;2060353;28;19917;-61
2022/03/02 01:37:00;;;;;;;;;;;;;;;17.41;52.10;100233.78;2056282;28;19922;-62
2022/03/02 01:38:00;;;;;;;;;;;;;;;17.40;52.33;100232.06;2059903;28;19956;-60
2022/03/02 01:39:01;;;;;;;;;;;;;;;17.40;52.25;100236.66;2061546;28;19921;-60
2022/03/02 01:40:01;;;;;;;;;;;;;;;17.38;52.22;100228.59;2059355;28;19928;-61
2022/03/02 01:41:01;;;;;;;;;;;;;;;17.38;52.22;100233.19;2061957;28;19921;-60
2022/03/02 01:42:02;;;;;;;;;;;;;;;17.36;52.30;100228.72;2059740;28;19921;-61
2022/03/02 01:43:02;;;;;;;;;;;;;;;17.36;52.13;100225.13;2060580;28;19925;-61
2022/03/02 01:44:02;;;;;;;;;;;;;;;17.34;52.33;100230.75;2058481;28;19991;-61
2022/03/02 01:45:03;;;;;;;;;;;;;;;17.34;52.52;100221.69;2060127;28;19932;-61
2022/03/02 01:46:04;;;;;;;;;;;;;;;17.35;52.31;100223.44;2060163;28;20728;-60
2022/03/02 01:47:05;;;;;;;;;;;;;;;17.34;52.33;100227.13;2059945;28;19927;-60
2022/03/02 01:48:05;;;;;;;;;;;;;;;17.35;52.22;100226.16;2065096;28;19917;-60
2022/03/02 01:49:06;;;;;;;;;;;;;;;17.36;52.36;100225.13;2060937;28;19922;-60
2022/03/02 01:50:08;;;;;;;;;;;;;;;17.36;52.34;100219.69;2060286;28;20265;-61
2022/03/02 01:51:08;;;;;;;;;;;;;;;17.38;52.00;100216.84;2055728;28;19922;-60
2022/03/02 01:52:09;;;;;;;;;;;;;;;17.37;51.94;100215.97;2059596;28;20200;-60
2022/03/02 01:53:09;;;;;;;;;;;;;;;17.39;52.04;100224.00;2053258;28;19926;-61
2022/03/02 01:54:09;;;;;;;;;;;;;;;17.38;51.93;100214.97;2051440;28;19929;-60
2022/03/02 01:55:11;;;;;;;;;;;;;;;17.37;52.21;100218.72;2062241;28;19913;-61
2022/03/02 01:56:12;;;;;;;;;;;;;;;17.37;52.28;100210.53;2061543;28;20016;-61
2022/03/02 01:57:12;;;;;;;;;;;;;;;17.35;52.20;100202.50;2058553;28;19914;-61
2022/03/02 01:58:12;;;;;;;;;;;;;;;17.35;52.06;100207.94;2061121;28;19921;-60
2022/03/02 01:59:13;;;;;;;;;;;;;;;17.33;52.14;100204.47;2060107;28;19921;-62
2022/03/02 02:00:15;;;;;;;;;;;;;;;17.33;52.05;100204.47;2061381;28;19928;-61
2022/03/02 02:01:16;;;;;;;;;;;;;;;17.32;52.25;100207.31;2057115;28;19979;-60
2022/03/02 02:02:16;;;;;;;;;;;;;;;17.31;52.13;100201.03;2061869;28;19933;-60
2022/03/02 02:03:17;;;;;;;;;;;;;;;17.31;52.17;100205.63;2062025;28;19956;-62
2022/03/02 02:04:17;;;;;;;;;;;;;;;17.30;52.18;100204.75;2052596;28;19929;-61
2022/03/02 02:05:18;;;;;;;;;;;;;;;17.30;52.37;100199.31;2053669;28;19972;-61
2022/03/02 02:06:18;;;;;;;;;;;;;;;17.30;52.29;100201.19;2062036;28;20484;-61
2022/03/02 02:07:21;;;;;;;;;;;;;;;17.29;52.36;100199.44;2063117;28;19914;-61
2022/03/02 02:08:21;;;;;;;;;;;;;;;17.27;52.16;100194.13;2058802;28;19926;-63
2022/03/02 02:09:22;;;;;;;;;;;;;;;17.29;52.18;100202.16;2061495;28;19961;-62
2022/03/02 02:10:22;;;;;;;;;;;;;;;17.27;52.38;100194.13;2063815;28;19922;-63
2022/03/02 02:11:23;;;;;;;;;;;;;;;17.27;52.48;100198.69;2061036;28;19933;-60
2022/03/02 02:12:23;;;;;;;;;;;;;;;17.28;52.30;100200.44;2054569;28;20372;-63
2022/03/02 02:13:24;;;;;;;;;;;;;;;17.27;52.29;100198.69;2054484;28;20301;-61
2022/03/02 02:14:26;;;;;;;;;;;;;;;17.28;52.45;100200.44;2060044;28;19918;-60
2022/03/02 02:15:26;;;;;;;;;;;;;;;17.27;52.47;100204.16;2056196;28;19917;-60
2022/03/02 02:16:27;;;;;;;;;;;;;;;17.26;52.45;100203.28;2050832;28;19983;-62
2022/03/02 02:17:27;;;;;;;;;;;;;;;17.27;52.36;100198.69;2059985;28;19920;-62
2022/03/02 02:18:28;;;;;;;;;;;;;;;17.28;52.54;100197.72;2064703;28;19960;-61
2022/03/02 02:19:28;;;;;;;;;;;;;;;17.29;52.63;100205.75;2061467;28;19917;-60
2022/03/02 02:20:29;;;;;;;;;;;;;;;17.29;52.51;100199.44;2063327;28;20028;-60
2022/03/02 02:21:30;;;;;;;;;;;;;;;17.31;52.38;100206.47;2061591;28;19917;-61
2022/03/02 02:22:30;;;;;;;;;;;;;;;17.31;52.38;100198.28;2062426;28;19926;-61
2022/03/02 02:23:30;;;;;;;;;;;;;;;17.33;52.36;100190.84;2063829;28;20229;-60
2022/03/02 02:24:31;;;;;;;;;;;;;;;17.34;52.30;100189.88;2060864;28;19936;-62
2022/03/02 02:25:31;;;;;;;;;;;;;;;17.34;52.29;100184.44;2060741;28;19917;-60
2022/03/02 02:26:32;;;;;;;;;;;;;;;17.36;52.33;100176.09;2058133;28;19929;-61
2022/03/02 02:27:33;;;;;;;;;;;;;;;17.37;52.49;100180.56;2059066;28;20417;-61
2022/03/02 02:28:33;;;;;;;;;;;;;;;17.37;52.32;100166.94;2062653;28;20227;-60
2022/03/02 02:29:34;;;;;;;;;;;;;;;17.38;52.19;100174.09;2058721;28;19943;-60
2022/03/02 02:30:35;;;;;;;;;;;;;;;17.37;52.22;100166.94;2056536;28;19953;-60
2022/03/02 02:31:35;;;;;;;;;;;;;;;17.39;52.06;100174.97;2059165;28;20381;-60
2022/03/02 02:32:37;;;;;;;;;;;;;;;17.37;52.21;100161.50;2059650;28;19978;-61
2022/03/02 02:33:38;;;;;;;;;;;;;;;17.36;52.26;100166.06;2060629;28;20170;-60
2022/03/02 02:34:38;;;;;;;;;;;;;;;17.35;52.33;100167.06;2062377;28;19909;-62
2022/03/02 02:35:38;;;;;;;;;;;;;;;17.34;52.50;100164.47;2063286;28;20351;-62
2022/03/02 02:36:39;;;;;;;;;;;;;;;17.33;52.51;100165.47;2060056;28;19913;-61
2022/03/02 02:37:40;;;;;;;;;;;;;;;17.33;52.57;100165.47;2053153;28;20409;-61
2022/03/02 02:38:41;;;;;;;;;;;;;;;17.31;52.47;100164.75;2054253;28;19929;-62
2022/03/02 02:39:42;;;;;;;;;;;;;;;17.32;52.34;100174.63;2062461;28;20168;-60
2022/03/02 02:40:42;;;;;;;;;;;;;;;17.33;52.35;100165.47;2052807;28;19926;-62
2022/03/02 02:41:42;;;;;;;;;;;;;;;17.32;52.54;100166.47;2059693;28;19921;-61
2022/03/02 02:42:47;;;;;;;;;;;;;;;17.30;52.63;100177.50;2061853;28;19976;-61
2022/03/02 02:43:48;;;;;;;;;;;;;;;17.30;52.54;100171.22;2059201;28;19934;-61
2022/03/02 02:44:48;;;;;;;;;;;;;;;17.29;52.42;100173.03;2058503;28;20432;-62
2022/03/02 02:45:48;;;;;;;;;;;;;;;17.29;52.52;100177.63;2063747;28;19917;-61
2022/03/02 02:46:49;;;;;;;;;;;;;;;17.29;52.71;100180.38;2066242;28;19921;-61
2022/03/02 02:47:50;;;;;;;;;;;;;;;17.28;52.56;100173.19;2061830;28;20414;-60
2022/03/02 02:48:50;;;;;;;;;;;;;;;17.27;52.24;100177.78;2063777;28;20473;-61
2022/03/02 02:49:50;;;;;;;;;;;;;;;17.27;52.37;100164.16;2062339;28;20249;-62
2022/03/02 02:50:51;;;;;;;;;;;;;;;17.29;52.45;100172.19;2062843;28;19917;-60
2022/03/02 02:51:53;;;;;;;;;;;;;;;17.29;52.48;100166.75;2059751;28;19932;-61
2022/03/02 02:52:55;;;;;;;;;;;;;;;17.30;52.48;100168.47;2062920;28;19917;-61
2022/03/02 02:53:55;;;;;;;;;;;;;;;17.29;52.37;100159.41;2062317;28;19928;-62
2022/03/02 02:54:56;;;;;;;;;;;;;;;17.30;52.34;100169.34;2062687;28;19961;-59
2022/03/02 02:55:57;;;;;;;;;;;;;;;17.30;52.39;100163.03;2063181;28;20470;-61
2022/03/02 02:56:57;;;;;;;;;;;;;;;17.28;52.18;100162.31;2062579;28;20359;-61
2022/03/02 02:57:58;;;;;;;;;;;;;;;17.28;52.60;100160.44;2060363;28;20277;-60
2022/03/02 02:58:58;;;;;;;;;;;;;;;17.28;52.44;100162.31;2055452;28;19917;-60
2022/03/02 02:59:58;;;;;;;;;;;;;;;17.28;52.21;100159.56;2054466;28;19921;-61
2022/03/02 03:00:59;;;;;;;;;;;;;;;17.27;52.45;100160.56;2055824;28;19913;-60
2022/03/02 03:01:59;;;;;;;;;;;;;;;17.27;52.53;100160.56;2054219;28;19921;-61
2022/03/02 03:03:00;;;;;;;;;;;;;;;17.26;52.55;100159.69;2048399;28;19941;-62
2022/03/02 03:04:00;;;;;;;;;;;;;;;17.27;52.59;100155.09;2037578;28;20135;-62
2022/03/02 03:05:01;;;;;;;;;;;;;;;17.25;52.57;100162.59;2046720;28;20092;-61
2022/03/02 03:06:01;;;;;;;;;;;;;;;17.25;52.68;100157.13;2059004;28;19927;-59
2022/03/02 03:07:01;;;;;;;;;;;;;;;17.24;52.53;100161.69;2052613;28;19992;-61
2022/03/02 03:08:03;;;;;;;;;;;;;;;17.24;52.51;100155.38;2054138;28;20029;-61
2022/03/02 03:09:03;;;;;;;;;;;;;;;17.24;52.61;100155.38;2053386;28;19918;-61
2022/03/02 03:10:04;;;;;;;;;;;;;;;17.23;52.79;100159.13;2054043;28;19924;-61
2022/03/02 03:11:05;;;;;;;;;;;;;;;17.23;52.54;100162.72;2054054;28;19917;-62
2022/03/02 03:12:05;;;;;;;;;;;;;;;17.23;52.46;100161.84;2050034;28;19921;-61
2022/03/02 03:13:06;;;;;;;;;;;;;;;17.22;52.76;100162.84;2053685;28;19922;-61
2022/03/02 03:14:07;;;;;;;;;;;;;;;17.22;52.63;100163.72;2054773;28;19926;-61
2022/03/02 03:15:09;;;;;;;;;;;;;;;17.21;52.75;100161.97;2053350;28;21778;-61
2022/03/02 03:16:09;;;;;;;;;;;;;;;17.20;52.68;100160.25;2050731;28;20455;-62
2022/03/02 03:17:10;;;;;;;;;;;;;;;17.21;52.84;100155.66;2042642;28;20729;-60
2022/03/02 03:18:10;;;;;;;;;;;;;;;17.21;52.77;100156.53;2047382;28;19918;-61
2022/03/02 03:19:11;;;;;;;;;;;;;;;17.21;52.73;100163.84;2048608;28;19922;-63
2022/03/02 03:20:13;;;;;;;;;;;;;;;17.22;52.44;100168.28;2054174;28;20627;-61
2022/03/02 03:21:13;;;;;;;;;;;;;;;17.22;52.40;100163.72;2054777;28;19914;-61
2022/03/02 03:22:13;;;;;;;;;;;;;;;17.24;52.59;100167.16;2053097;28;20180;-60
2022/03/02 03:23:14;;;;;;;;;;;;;;;17.26;52.56;100164.28;2054419;28;19918;-61
2022/03/02 03:24:14;;;;;;;;;;;;;;;17.27;52.48;100172.34;2051211;28;20025;-61
2022/03/02 03:25:14;;;;;;;;;;;;;;;17.27;52.76;100171.47;2048677;28;20657;-61
2022/03/02 03:26:15;;;;;;;;;;;;;;;17.28;52.54;100168.59;2054172;28;20021;-60
2022/03/02 03:27:15;;;;;;;;;;;;;;;17.30;52.52;100171.22;2052335;28;20905;-61
2022/03/02 03:28:16;;;;;;;;;;;;;;;17.31;52.47;100167.47;2055850;28;19928;-60
2022/03/02 03:29:16;;;;;;;;;;;;;;;17.32;52.55;100163.72;2050611;28;19984;-62
2022/03/02 03:30:19;;;;;;;;;;;;;;;17.33;52.45;100173.66;2053689;28;19926;-62
2022/03/02 03:31:19;;;;;;;;;;;;;;;17.33;52.52;100165.47;2053249;28;19949;-60
2022/03/02 03:32:19;;;;;;;;;;;;;;;17.35;52.48;100174.38;2053851;28;19999;-61
2022/03/02 03:33:20;;;;;;;;;;;;;;;17.33;52.48;100173.66;2055724;28;19918;-62
2022/03/02 03:34:20;;;;;;;;;;;;;;;17.34;52.62;100178.09;2053087;28;19931;-60
2022/03/02 03:35:21;;;;;;;;;;;;;;;17.32;52.49;100180.09;2058619;28;19932;-61
2022/03/02 03:36:22;;;;;;;;;;;;;;;17.30;52.48;100176.66;2051410;28;19925;-61
2022/03/02 03:37:22;;;;;;;;;;;;;;;17.32;52.46;100185.53;2054045;28;19921;-60
2022/03/02 03:38:22;;;;;;;;;;;;;;;17.31;52.64;100183.81;2054359;28;19914;-60
2022/03/02 03:39:23;;;;;;;;;;;;;;;17.29;52.58;100191.25;2051613;28;20262;-60
2022/03/02 03:40:23;;;;;;;;;;;;;;;17.29;52.68;100188.53;2051657;28;19928;-61
2022/03/02 03:41:23;;;;;;;;;;;;;;;17.27;52.56;100182.34;2054575;28;20392;-60
2022/03/02 03:42:24;;;;;;;;;;;;;;;17.28;52.63;100184.09;2052661;28;19925;-61
2022/03/02 03:43:24;;;;;;;;;;;;;;;17.27;52.74;100179.63;2053980;28;19918;-61
2022/03/02 03:44:25;;;;;;;;;;;;;;;17.27;52.66;100176.91;2054549;28;20088;-60
2022/03/02 03:45:26;;;;;;;;;;;;;;;17.27;52.42;100179.63;2054519;28;19921;-61
2022/03/02 03:46:26;;;;;;;;;;;;;;;17.26;52.62;100175.19;2055070;28;19921;-60
2022/03/02 03:47:27;;;;;;;;;;;;;;;17.25;52.73;100173.47;2045811;28;19954;-61
2022/03/02 03:48:27;;;;;;;;;;;;;;;17.25;52.68;100165.31;2041986;28;20713;-61
2022/03/02 03:49:27;;;;;;;;;;;;;;;17.24;52.61;100167.16;2053892;28;20024;-60
2022/03/02 03:50:28;;;;;;;;;;;;;;;17.24;52.56;100161.69;2053310;28;19957;-61
2022/03/02 03:51:28;;;;;;;;;;;;;;;17.24;52.65;100166.28;2052037;28;20373;-61
2022/03/02 03:52:29;;;;;;;;;;;;;;;17.23;52.66;100165.44;2045258;28;19922;-61
2022/03/02 03:53:29;;;;;;;;;;;;;;;17.24;52.57;100166.28;2045008;28;20419;-61
2022/03/02 03:54:29;;;;;;;;;;;;;;;17.23;52.51;100164.56;2053059;28;19953;-61
2022/03/02 03:55:29;;;;;;;;;;;;;;;17.24;52.75;100164.41;2052080;28;19929;-61
2022/03/02 03:56:31;;;;;;;;;;;;;;;17.23;52.82;100162.72;2054448;28;19998;-61
2022/03/02 03:57:31;;;;;;;;;;;;;;;17.24;52.67;100160.84;2047918;28;19981;-61
2022/03/02 03:58:32;;;;;;;;;;;;;;;17.25;52.57;100157.13;2051081;28;20783;-61
2022/03/02 03:59:32;;;;;;;;;;;;;;;17.25;52.59;100162.59;2053993;28;19929;-61
2022/03/02 04:00:33;;;;;;;;;;;;;;;17.24;52.56;100156.25;2052698;28;20562;-61
2022/03/02 04:01:33;;;;;;;;;;;;;;;17.24;52.61;100148.06;2054181;28;19920;-61
2022/03/02 04:02:33;;;;;;;;;;;;;;;17.23;52.54;100143.63;2052293;28;19952;-60
2022/03/02 04:03:34;;;;;;;;;;;;;;;17.23;52.69;100142.78;2053050;28;19989;-60
2022/03/02 04:04:35;;;;;;;;;;;;;;;17.23;52.57;100143.63;2054052;28;19922;-61
2022/03/02 04:05:35;;;;;;;;;;;;;;;17.21;52.46;100137.47;2054018;28;20139;-60
2022/03/02 04:06:35;;;;;;;;;;;;;;;17.21;52.62;100147.50;2054205;28;19968;-60
2022/03/02 04:07:36;;;;;;;;;;;;;;;17.21;52.62;100139.31;2054581;28;19918;-60
2022/03/02 04:08:37;;;;;;;;;;;;;;;17.19;52.75;100146.78;2053272;28;19921;-61
2022/03/02 04:09:37;;;;;;;;;;;;;;;17.20;52.46;100162.09;2054694;28;19967;-61
2022/03/02 04:10:38;;;;;;;;;;;;;;;17.20;52.57;100159.38;2052660;28;19914;-61
2022/03/02 04:11:38;;;;;;;;;;;;;;;17.18;52.60;100159.53;2053386;28;19914;-60
2022/03/02 04:12:38;;;;;;;;;;;;;;;17.18;52.81;100154.09;2056090;28;19929;-61
2022/03/02 04:13:39;;;;;;;;;;;;;;;17.19;52.72;100157.66;2054061;28;19922;-61
2022/03/02 04:14:39;;;;;;;;;;;;;;;17.17;52.63;100149.63;2054966;28;20392;-60
2022/03/02 04:15:40;;;;;;;;;;;;;;;17.17;52.76;100148.75;2054467;28;20590;-61
2022/03/02 04:16:41;;;;;;;;;;;;;;;17.18;52.69;100151.34;2054211;28;19960;-61
2022/03/02 04:17:41;;;;;;;;;;;;;;;17.19;52.80;100157.66;2054230;28;19975;-61
2022/03/02 04:18:42;;;;;;;;;;;;;;;17.19;52.94;100149.50;2053042;28;20415;-61
2022/03/02 04:19:42;;;;;;;;;;;;;;;17.20;52.90;100153.94;2053264;28;19918;-61
2022/03/02 04:20:42;;;;;;;;;;;;;;;17.19;52.86;100157.66;2050944;28;19917;-60
2022/03/02 04:21:43;;;;;;;;;;;;;;;17.20;52.72;100165.72;2052932;28;19963;-61
2022/03/02 04:22:43;;;;;;;;;;;;;;;17.21;52.77;100156.53;2053138;28;19933;-60
2022/03/02 04:23:43;;;;;;;;;;;;;;;17.21;52.78;100161.13;2053482;28;19917;-60
2022/03/02 04:24:45;;;;;;;;;;;;;;;17.24;52.70;100163.56;2057944;28;19925;-61
2022/03/02 04:25:45;;;;;;;;;;;;;;;17.25;52.73;100157.13;2049693;28;19917;-60
2022/03/02 04:26:46;;;;;;;;;;;;;;;17.26;52.71;100165.16;2056367;28;19928;-61
2022/03/02 04:27:46;;;;;;;;;;;;;;;17.28;52.70;100167.75;2051038;28;19938;-60
2022/03/02 04:28:46;;;;;;;;;;;;;;;17.29;52.79;100164.00;2053990;28;19910;-60
2022/03/02 04:29:47;;;;;;;;;;;;;;;17.28;52.43;100156.84;2055580;28;19917;-60
2022/03/02 04:30:47;;;;;;;;;;;;;;;17.30;52.56;100165.75;2051524;28;19972;-60
2022/03/02 04:31:47;;;;;;;;;;;;;;;17.30;52.46;100160.31;2054321;28;20389;-60
2022/03/02 04:32:48;;;;;;;;;;;;;;;17.31;52.46;100162.03;2050871;28;19921;-61
2022/03/02 04:33:48;;;;;;;;;;;;;;;17.33;52.52;100157.31;2053316;28;19944;-61
2022/03/02 04:34:48;;;;;;;;;;;;;;;17.30;52.43;100155.72;2054305;28;19917;-60
2022/03/02 04:35:49;;;;;;;;;;;;;;;17.29;52.47;100158.56;2053388;28;19917;-60
2022/03/02 04:36:49;;;;;;;;;;;;;;;17.29;52.64;100159.41;2054573;28;19941;-61
2022/03/02 04:37:49;;;;;;;;;;;;;;;17.27;52.48;100155.09;2052297;28;19922;-60
2022/03/02 04:38:50;;;;;;;;;;;;;;;17.27;52.56;100152.38;2053220;28;19913;-60
2022/03/02 04:39:50;;;;;;;;;;;;;;;17.26;52.72;100153.41;2053310;28;19949;-60
2022/03/02 04:40:50;;;;;;;;;;;;;;;17.25;52.63;100154.41;2051191;28;20404;-60
2022/03/02 04:41:50;;;;;;;;;;;;;;;17.25;52.58;100151.69;2053920;28;19929;-60
2022/03/02 04:42:51;;;;;;;;;;;;;;;17.24;52.60;100149.94;2052778;28;20440;-61
2022/03/02 04:43:51;;;;;;;;;;;;;;;17.24;52.68;100153.53;2054915;28;19925;-60
2022/03/02 04:44:52;;;;;;;;;;;;;;;17.23;52.59;100146.38;2051741;28;20503;-60
2022/03/02 04:45:52;;;;;;;;;;;;;;;17.23;52.70;100150.97;2055393;28;20261;-61
2022/03/02 04:46:53;;;;;;;;;;;;;;;17.23;52.60;100153.69;2054032;28;19932;-59
2022/03/02 04:47:54;;;;;;;;;;;;;;;17.22;52.70;100152.81;2054089;28;19922;-61
2022/03/02 04:48:55;;;;;;;;;;;;;;;17.22;52.52;100162.84;2054400;28;20696;-60
2022/03/02 04:49:55;;;;;;;;;;;;;;;17.21;52.68;100161.13;2054237;28;20394;-60
2022/03/02 04:50:56;;;;;;;;;;;;;;;17.20;52.82;100163.00;2052010;28;19928;-61
2022/03/02 04:51:57;;;;;;;;;;;;;;;17.21;52.78;100163.84;2052737;28;19928;-61
2022/03/02 04:52:57;;;;;;;;;;;;;;;17.22;52.70;100162.84;2053237;28;19925;-61
2022/03/02 04:53:57;;;;;;;;;;;;;;;17.23;52.59;100164.56;2052559;28;20408;-61
2022/03/02 04:55:07;;;;;;;;;;;;;;;17.22;52.75;100162.84;2052636;28;19921;-61
2022/03/02 04:56:08;;;;;;;;;;;;;;;17.22;52.63;100165.56;2049358;28;20794;-61
2022/03/02 04:57:09;;;;;;;;;;;;;;;17.21;52.65;100166.56;2053871;28;19965;-61
2022/03/02 04:58:10;;;;;;;;;;;;;;;17.21;52.52;100167.44;2058858;28;19929;-61
2022/03/02 04:59:11;;;;;;;;;;;;;;;17.21;52.76;100166.56;2059916;28;19917;-61
2022/03/02 05:00:11;;;;;;;;;;;;;;;17.21;52.79;100166.56;2059234;28;20682;-60
2022/03/02 05:01:12;;;;;;;;;;;;;;;17.21;52.76;100169.28;2061569;28;20525;-60
2022/03/02 05:02:12;;;;;;;;;;;;;;;17.21;52.58;100177.47;2061604;28;19925;-60
2022/03/02 05:03:13;;;;;;;;;;;;;;;17.21;52.54;100166.56;2057652;28;20588;-60
2022/03/02 05:04:14;;;;;;;;;;;;;;;17.21;52.60;100166.56;2058645;28;19922;-61
2022/03/02 05:05:15;;;;;;;;;;;;;;;17.20;52.48;100165.72;2061469;28;20686;-61
2022/03/02 05:06:16;;;;;;;;;;;;;;;17.20;52.63;100159.38;2062254;28;20078;-61
2022/03/02 05:07:16;;;;;;;;;;;;;;;17.19;52.67;100157.66;2061100;28;19980;-61
2022/03/02 05:08:16;;;;;;;;;;;;;;;17.18;52.80;100162.25;2058042;28;19996;-61
2022/03/02 05:09:17;;;;;;;;;;;;;;;17.18;52.49;100159.53;2056929;28;19949;-61
2022/03/02 05:10:19;;;;;;;;;;;;;;;17.18;52.66;100161.41;2059433;28;20093;-61